Sumter, SC

1:08 PM EDT on August 28, 2016 (GMT -0400)
USC Sumter | | Change Station

Elev 165 ft 33.93 °N, 80.37 °W | Updated 2 minutes ago

Mostly Cloudy
Mostly Cloudy
88.4 °F
Feels Like 94 °F
N
5.0
Wind Variable Wind from South
Gusts 15.0 mph

Today
High -- | Low -- °F
--% Chance of Precip.
Yesterday
High -- | Low -- °F
Precip. -- in
Pressure 30.14 in
Visibility -9999.0 miles
Clouds Scattered Clouds 3700 ft
Mostly Cloudy 4400 ft
Mostly Cloudy 6000 ft
Heat Index 94 °F
Dew Point 70 °F
Humidity 55%
Rainfall Not available.
Snow Depth Not available.
6:52 AM 7:51 PM
Waning Crescent, 14% visible
METAR KSMS 281655Z AUTO 02005KT SCT037 BKN044 BKN060 30/22 A3014 RMK AO2
Pressure 30.14 in
Visibility -9999.0 miles
Clouds Scattered Clouds 3700 ft
Mostly Cloudy 4400 ft
Mostly Cloudy 6000 ft
Heat Index 94 °F
Dew Point 70 °F
Humidity 55%
Rainfall Not available.
Snow Depth Not available.
6:52 AM 7:51 PM
Waning Crescent, 14% visible
METAR KSMS 281655Z AUTO 02005KT SCT037 BKN044 BKN060 30/22 A3014 RMK AO2

10-Day Weather Forecast

Almanac

Astronomy

Aug. 28, 2016 Rise Set
Actual Time
Civil Twilight
Nautical Twilight
Astronomical Twilight
Moon
Length of Visible Light
Length of Day
Tomorrow will be .
, % of the Moon is Illuminated

Today's Extremes

State Highs State Lows

Community

WunderPhotos

Upload Photos

1,935,627 photos uploaded!

WunderBlog® & News

Nearby

Air Quality

  Air Quality AQ Index Pollutant
Not available.

Snow Depth

Station Depth Elevation

Earthquake Activity

City Distance Mag. Time & Date
Minimum magnitude displayed is 2.5.

Coastal Water Temperatures

Place Temperature

Stations

Nearby Weather Stations

Station Location Temp. Windchill Dew Point Humidity Wind Precip. Elev Updated Type
                   

Watches & Warnings

There are currently no watches in effect.